Dansville, Michigan
Current Conditions -  °F | °C
As of 11:54 AM on Tuesday 27 Jan 2015 (Local Time) from KTEW Reporting Station
Scattered Clouds Scattered Clouds  
Wind Chill: 12°   Ceiling: Unl
Heat Index: 20°   Visibility: 10mi
Dew Point: 12°   Wind: 7mph
Humidity: 70%   Direction: 30°NNE
Pressure: 30.12"   Gusts: NA
Location:  42.56°N, 84.3°W
Report Text: KTEW 271654Z AUTO 03006KT 10SM SCT019 SCT075 M06/M11 A3012 RMK AO2 T10641111
Loading
Personal Weather Stations






























Interactive Weather Map New forecast layout! Learn more

10-Day Weather Forecast

Advertisements
Track Severe Weather on mobile